Meteo18 Weather Cam more information Meteo18 Weather Cam


Thunder radar more information blitzortung!


Rain radar more information rain snow radar



Select another period ( hide this area )

Units Period Custom range Directly to
Metric English Both
Daily Weekly Monthly Yearly
use both date-selectors for a custom range
previous Day
With this date

WeatherUnderground graphs for this period ( click here )


Daily Summary for Friday 18 October 2019
Time Temp. ( °C ) Dew pt. ( °C ) Wind ( km/h ) from Gust ( km/h ) Pressure ( hPa ) Humid.( % ) Rainrate ( cm )
High13,6 13,0 14,3 SW ( 151/237 ) 24,1 1012,8 96 5,60
Average13,2 12,5 4,8 SW #23/49 9,2 1012,1 96 5,10
Low12,6 11,8 -   0,0 1011,4 95 -
Daily Tabular details for Friday 18 October 2019
Time Temp. ( °C ) Dew pt. ( °C ) Wind ( km/h ) from Gust ( km/h ) Pressure ( hPa ) Humid.( % ) Rainrate ( cm )
00:00 12,6 11,8 3,2 SW 6,4 1012,8 95 -
00:06 12,6 11,8 6,4 SW 9,7 1012,8 95 1,30
00:10 12,7 11,9 6,4 WSW 11,3 1012,8 95 2,00
00:16 13,0 12,4 4,7 SW 11,3 1012,8 96 2,50
00:20 13,1 12,5 7,9 SW 12,9 1012,8 96 2,50
00:26 13,2 12,6 11,1 SW 17,7 1012,8 96 3,00
00:30 13,3 12,7 6,4 SSW 16,1 1012,8 96 3,60
00:36 13,4 12,8 6,4 SW 12,9 1012,8 96 4,30
00:40 13,5 12,9 7,9 SW 19,3 1012,8 96 4,80
00:46 13,6 13,0 7,9 WSW 24,1 1012,8 96 5,10
00:50 13,6 13,0 11,1 SW 16,1 1012,4 96 5,10
00:56 13,6 13,0 7,9 SSE 16,1 1012,4 96 5,60
01:00 13,6 13,0 14,3 SW 16,1 1012,4 96 5,60
01:06 13,5 12,9 7,9 SW 12,9 1012,4 96 4,30
01:10 13,4 12,8 14,3 SW 19,3 1012,4 96 3,80
01:16 13,4 12,8 3,2 SSW 11,3 1012,4 96 3,30
01:20 13,4 12,8 4,7 SSE 11,3 1012,4 96 3,30
01:26 13,3 12,7 3,2 SW 12,9 1012,4 96 3,30
01:30 13,3 12,7 3,2 SW 6,4 1012,4 96 2,50
01:36 13,3 12,7 6,4 SSE 9,7 1012,1 96 1,80
01:40 13,3 12,7 3,2 SSW 6,4 1012,1 96 1,50
01:46 13,2 12,6   Calm 4,8 1012,1 96 1,30
01:50 13,2 12,6 3,2 SW 3,2 1012,1 96 1,00
01:56 13,2 12,6   Calm 3,2 1012,1 96 0,50
02:00 13,1 12,5 1,4 SSW 3,2 1012,1 96 0,50
02:06 13,1 12,5 1,4 SSW 3,2 1012,1 96 0,50
02:10 13,1 12,5 1,4 WSW 3,2 1012,1 96 0,50
02:16 13,1 12,5 6,4 SSW 8,0 1011,7 96 0,30
02:20 13,1 12,5 4,7 SW 8,0 1012,1 96 0,30
02:26 13,1 12,5 3,2 SSW 8,0 1011,7 96 -
02:30 13,1 12,5 3,2 SW 4,8 1011,7 96 -
02:36 13,1 12,5   Calm 3,2 1011,7 96 -
02:40 13,1 12,5 1,4 SW 6,4 1011,7 96 -
02:46 12,9 12,3   Calm   1011,7 96 -
02:50 12,9 12,3   Calm 3,2 1011,7 96 -
02:56 12,9 12,3   Calm 1,6 1011,7 96 -
03:00 12,8 12,2 1,4 SSE 4,8 1011,7 96 -
03:06 12,8 12,2 6,4 SW 8,0 1011,7 96 -
03:10 12,8 12,2 4,7 SW 8,0 1011,7 96 -
03:16 12,9 12,3 9,7 SW 9,7 1011,7 96 -
03:20 12,9 12,3 4,7 WSW 6,4 1011,7 96 -
03:26 13,1 12,5 1,4 WSW 8,0 1011,7 96 -
03:30 13,1 12,5 4,7 WSW 11,3 1011,7 96 -
03:35 13,2 12,6 6,4 WSW 11,3 1011,7 96 -
03:41 13,2 12,6 4,7 SSW 9,7 1011,7 96 -
03:45 13,2 12,4 4,7 SW 9,7 1011,7 95 -
03:51 13,2 12,4 7,9 SW 8,0 1011,4 95 -
03:55 13,2 12,4 3,2 SSW 6,4 1011,4 95 -
04:01 13,2 12,4 3,2 SW 6,4 1011,4 95 0,30
Daily Summary for Friday 18 October 2019
Time Temp. ( °C ) Dew pt. ( °C ) Wind ( km/h ) from Gust ( km/h ) Pressure ( hPa ) Humid.( % ) Rainrate ( cm )
High13,6 13,0 14,3 SW ( 151/237 ) 24,1 1012,8 96 5,60
Average13,2 12,5 4,8 SW #23/49 9,2 1012,1 96 5,10
Low12,6 11,8 -   0,0 1011,4 95 -
Daily Tabular details for Friday 18 October 2019
Time Temp. ( °C ) Dew pt. ( °C ) Wind ( km/h ) from Gust ( km/h ) Pressure ( hPa ) Humid.( % ) Rainrate ( cm )
00:00 12,6 11,8 3,2 SW 6,4 1012,8 95 -
00:06 12,6 11,8 6,4 SW 9,7 1012,8 95 1,30
00:10 12,7 11,9 6,4 WSW 11,3 1012,8 95 2,00
00:16 13,0 12,4 4,7 SW 11,3 1012,8 96 2,50
00:20 13,1 12,5 7,9 SW 12,9 1012,8 96 2,50
00:26 13,2 12,6 11,1 SW 17,7 1012,8 96 3,00
00:30 13,3 12,7 6,4 SSW 16,1 1012,8 96 3,60
00:36 13,4 12,8 6,4 SW 12,9 1012,8 96 4,30
00:40 13,5 12,9 7,9 SW 19,3 1012,8 96 4,80
00:46 13,6 13,0 7,9 WSW 24,1 1012,8 96 5,10
00:50 13,6 13,0 11,1 SW 16,1 1012,4 96 5,10
00:56 13,6 13,0 7,9 SSE 16,1 1012,4 96 5,60
01:00 13,6 13,0 14,3 SW 16,1 1012,4 96 5,60
01:06 13,5 12,9 7,9 SW 12,9 1012,4 96 4,30
01:10 13,4 12,8 14,3 SW 19,3 1012,4 96 3,80
01:16 13,4 12,8 3,2 SSW 11,3 1012,4 96 3,30
01:20 13,4 12,8 4,7 SSE 11,3 1012,4 96 3,30
01:26 13,3 12,7 3,2 SW 12,9 1012,4 96 3,30
01:30 13,3 12,7 3,2 SW 6,4 1012,4 96 2,50
01:36 13,3 12,7 6,4 SSE 9,7 1012,1 96 1,80
01:40 13,3 12,7 3,2 SSW 6,4 1012,1 96 1,50
01:46 13,2 12,6   Calm 4,8 1012,1 96 1,30
01:50 13,2 12,6 3,2 SW 3,2 1012,1 96 1,00
01:56 13,2 12,6   Calm 3,2 1012,1 96 0,50
02:00 13,1 12,5 1,4 SSW 3,2 1012,1 96 0,50
02:06 13,1 12,5 1,4 SSW 3,2 1012,1 96 0,50
02:10 13,1 12,5 1,4 WSW 3,2 1012,1 96 0,50
02:16 13,1 12,5 6,4 SSW 8,0 1011,7 96 0,30
02:20 13,1 12,5 4,7 SW 8,0 1012,1 96 0,30
02:26 13,1 12,5 3,2 SSW 8,0 1011,7 96 -
02:30 13,1 12,5 3,2 SW 4,8 1011,7 96 -
02:36 13,1 12,5   Calm 3,2 1011,7 96 -
02:40 13,1 12,5 1,4 SW 6,4 1011,7 96 -
02:46 12,9 12,3   Calm   1011,7 96 -
02:50 12,9 12,3   Calm 3,2 1011,7 96 -
02:56 12,9 12,3   Calm 1,6 1011,7 96 -
03:00 12,8 12,2 1,4 SSE 4,8 1011,7 96 -
03:06 12,8 12,2 6,4 SW 8,0 1011,7 96 -
03:10 12,8 12,2 4,7 SW 8,0 1011,7 96 -
03:16 12,9 12,3 9,7 SW 9,7 1011,7 96 -
03:20 12,9 12,3 4,7 WSW 6,4 1011,7 96 -
03:26 13,1 12,5 1,4 WSW 8,0 1011,7 96 -
03:30 13,1 12,5 4,7 WSW 11,3 1011,7 96 -
03:35 13,2 12,6 6,4 WSW 11,3 1011,7 96 -
03:41 13,2 12,6 4,7 SSW 9,7 1011,7 96 -
03:45 13,2 12,4 4,7 SW 9,7 1011,7 95 -
03:51 13,2 12,4 7,9 SW 8,0 1011,4 95 -
03:55 13,2 12,4 3,2 SSW 6,4 1011,4 95 -
04:01 13,2 12,4 3,2 SW 6,4 1011,4 95 0,30

Download your copy of this data-set  here

Our weather-data as stored at Weather Underground. Script developed by Jim McMurry. Adapted for the template by Leuven-Template.eu

You find our weather info also at:

Weather Underground

Equipment we use:

Weather-station
Davis Vue

Weather-program
Meteobridge

Weather-server
Raspberry PI 2 B+

Provider
1 and 1

Davis Vue

Meteobridge

Raspberry PI 2 B+

1 and 1